sensor_id;sensor_type;location;lat;lon;timestamp;pressure;altitude;pressure_sealevel;temperature;humidity
21102;BME280;10709;49.006;12.100;2023-08-17T00:01:16;49059.47;;;-146.00;86.25
21102;BME280;10709;49.006;12.100;2023-08-17T00:03:43;49043.81;;;-146.00;86.30
21102;BME280;10709;49.006;12.100;2023-08-17T00:06:09;49086.91;;;-146.00;87.17
21102;BME280;10709;49.006;12.100;2023-08-17T00:08:36;49051.66;;;-146.00;87.12
21102;BME280;10709;49.006;12.100;2023-08-17T00:11:02;49016.38;;;-146.00;87.30
21102;BME280;10709;49.006;12.100;2023-08-17T00:13:29;49049.69;;;-146.00;87.54
21102;BME280;10709;49.006;12.100;2023-08-17T00:15:55;49034.00;;;-146.00;88.06
21102;BME280;10709;49.006;12.100;2023-08-17T00:18:22;49032.06;;;-146.00;88.15
21102;BME280;10709;49.006;12.100;2023-08-17T00:20:48;49041.84;;;-146.00;88.08
21102;BME280;10709;49.006;12.100;2023-08-17T00:23:15;49024.22;;;-146.00;88.02
21102;BME280;10709;49.006;12.100;2023-08-17T00:25:41;49047.72;;;-146.00;88.32
21102;BME280;10709;49.006;12.100;2023-08-17T00:28:08;49035.97;;;-146.00;88.20
21102;BME280;10709;49.006;12.100;2023-08-17T00:30:35;49018.34;;;-146.00;88.03
21102;BME280;10709;49.006;12.100;2023-08-17T00:33:04;49020.31;;;-146.00;88.69
21102;BME280;10709;49.006;12.100;2023-08-17T00:35:31;49039.88;;;-146.00;88.85
21102;BME280;10709;49.006;12.100;2023-08-17T00:37:59;49030.09;;;-146.00;88.81
21102;BME280;10709;49.006;12.100;2023-08-17T00:40:26;49026.19;;;-146.00;89.05
21102;BME280;10709;49.006;12.100;2023-08-17T00:42:52;49083.00;;;-146.00;88.97
21102;BME280;10709;49.006;12.100;2023-08-17T00:45:19;49020.31;;;-146.00;89.43
21102;BME280;10709;49.006;12.100;2023-08-17T00:47:45;49035.97;;;-146.00;89.78
21102;BME280;10709;49.006;12.100;2023-08-17T00:50:13;49071.25;;;-146.00;89.83
21102;BME280;10709;49.006;12.100;2023-08-17T00:52:41;49043.81;;;-146.00;89.58
21102;BME280;10709;49.006;12.100;2023-08-17T00:55:09;49028.13;;;-146.00;89.68
21102;BME280;10709;49.006;12.100;2023-08-17T00:57:37;49059.47;;;-146.00;89.45
21102;BME280;10709;49.006;12.100;2023-08-17T01:00:04;49049.69;;;-146.00;89.66
21102;BME280;10709;49.006;12.100;2023-08-17T01:02:32;49012.47;;;-146.00;89.52
21102;BME280;10709;49.006;12.100;2023-08-17T01:05:00;49018.34;;;-146.00;89.21
21102;BME280;10709;49.006;12.100;2023-08-17T01:07:27;49059.47;;;-146.00;89.28
21102;BME280;10709;49.006;12.100;2023-08-17T01:09:54;49034.00;;;-146.00;88.68
21102;BME280;10709;49.006;12.100;2023-08-17T01:13:00;49047.72;;;-146.00;88.55
21102;BME280;10709;49.006;12.100;2023-08-17T01:15:40;49055.56;;;-146.00;88.77
21102;BME280;10709;49.006;12.100;2023-08-17T01:18:37;49067.31;;;-146.00;89.06
21102;BME280;10709;49.006;12.100;2023-08-17T01:21:08;49043.81;;;-146.00;89.19
21102;BME280;10709;49.006;12.100;2023-08-17T01:23:36;49037.94;;;-146.00;89.25
21102;BME280;10709;49.006;12.100;2023-08-17T01:26:02;49028.13;;;-146.00;89.19
21102;BME280;10709;49.006;12.100;2023-08-17T01:28:29;49053.59;;;-146.00;89.49
21102;BME280;10709;49.006;12.100;2023-08-17T01:31:05;49035.97;;;-146.00;89.85
21102;BME280;10709;49.006;12.100;2023-08-17T01:33:42;49016.38;;;-146.00;89.62
21102;BME280;10709;49.006;12.100;2023-08-17T01:36:20;49051.66;;;-146.00;89.80
21102;BME280;10709;49.006;12.100;2023-08-17T01:38:50;49035.97;;;-146.00;89.80
21102;BME280;10709;49.006;12.100;2023-08-17T01:41:20;49047.72;;;-146.00;90.18
21102;BME280;10709;49.006;12.100;2023-08-17T01:43:47;49016.38;;;-146.00;89.98
21102;BME280;10709;49.006;12.100;2023-08-17T01:46:15;49063.41;;;-146.00;90.69
21102;BME280;10709;49.006;12.100;2023-08-17T01:48:43;49067.31;;;-146.00;90.67
21102;BME280;10709;49.006;12.100;2023-08-17T01:51:11;49055.56;;;-146.00;90.98
21102;BME280;10709;49.006;12.100;2023-08-17T01:53:38;49051.66;;;-146.00;90.96
21102;BME280;10709;49.006;12.100;2023-08-17T01:56:04;49063.41;;;-146.00;90.96
21102;BME280;10709;49.006;12.100;2023-08-17T01:58:31;49073.19;;;-146.00;91.00
21102;BME280;10709;49.006;12.100;2023-08-17T02:00:57;49063.41;;;-146.00;90.84
21102;BME280;10709;49.006;12.100;2023-08-17T02:03:24;49063.41;;;-146.00;91.02
21102;BME280;10709;49.006;12.100;2023-08-17T02:05:50;49067.31;;;-146.00;90.85
21102;BME280;10709;49.006;12.100;2023-08-17T02:08:17;49043.81;;;-146.00;91.15
21102;BME280;10709;49.006;12.100;2023-08-17T02:10:43;49071.25;;;-146.00;90.78
21102;BME280;10709;49.006;12.100;2023-08-17T02:13:10;49059.47;;;-146.00;90.95
21102;BME280;10709;49.006;12.100;2023-08-17T02:15:44;49059.47;;;-146.00;91.24
21102;BME280;10709;49.006;12.100;2023-08-17T02:18:11;49061.44;;;-146.00;91.43
21102;BME280;10709;49.006;12.100;2023-08-17T02:20:37;49034.00;;;-146.00;91.37
21102;BME280;10709;49.006;12.100;2023-08-17T02:23:04;49055.56;;;-146.00;91.41
21102;BME280;10709;49.006;12.100;2023-08-17T02:25:30;49063.41;;;-146.00;91.32
21102;BME280;10709;49.006;12.100;2023-08-17T02:28:02;49057.53;;;-146.00;91.21
21102;BME280;10709;49.006;12.100;2023-08-17T02:30:30;49047.72;;;-146.00;91.57
21102;BME280;10709;49.006;12.100;2023-08-17T02:32:57;49035.97;;;-146.00;91.18
21102;BME280;10709;49.006;12.100;2023-08-17T02:35:24;49073.19;;;-146.00;90.84
21102;BME280;10709;49.006;12.100;2023-08-17T02:37:50;49055.56;;;-146.00;90.81
21102;BME280;10709;49.006;12.100;2023-08-17T02:40:17;49059.47;;;-146.00;91.13
21102;BME280;10709;49.006;12.100;2023-08-17T02:42:44;49045.78;;;-146.00;90.79
21102;BME280;10709;49.006;12.100;2023-08-17T02:45:10;49061.44;;;-146.00;90.26
21102;BME280;10709;49.006;12.100;2023-08-17T02:47:37;49016.38;;;-146.00;90.84
21102;BME280;10709;49.006;12.100;2023-08-17T02:50:04;49063.41;;;-146.00;91.40
21102;BME280;10709;49.006;12.100;2023-08-17T02:52:30;49055.56;;;-146.00;91.13
21102;BME280;10709;49.006;12.100;2023-08-17T02:54:57;49059.47;;;-146.00;91.19
21102;BME280;10709;49.006;12.100;2023-08-17T02:57:23;49083.00;;;-146.00;90.97
21102;BME280;10709;49.006;12.100;2023-08-17T02:59:50;49063.41;;;-146.00;90.97
21102;BME280;10709;49.006;12.100;2023-08-17T03:02:17;49043.81;;;-146.00;91.30
21102;BME280;10709;49.006;12.100;2023-08-17T03:04:43;49055.56;;;-146.00;91.71
21102;BME280;10709;49.006;12.100;2023-08-17T03:07:10;49022.25;;;-146.00;92.02
21102;BME280;10709;49.006;12.100;2023-08-17T03:09:36;49020.31;;;-146.00;91.76
21102;BME280;10709;49.006;12.100;2023-08-17T03:12:03;49028.13;;;-146.00;92.07
21102;BME280;10709;49.006;12.100;2023-08-17T03:14:30;49055.56;;;-146.00;91.94
21102;BME280;10709;49.006;12.100;2023-08-17T03:16:56;49051.66;;;-146.00;92.35
21102;BME280;10709;49.006;12.100;2023-08-17T03:19:23;49071.25;;;-146.00;92.29
21102;BME280;10709;49.006;12.100;2023-08-17T03:21:49;49057.53;;;-146.00;92.59
21102;BME280;10709;49.006;12.100;2023-08-17T03:24:16;49053.59;;;-146.00;91.99
21102;BME280;10709;49.006;12.100;2023-08-17T03:26:42;49035.97;;;-146.00;92.01
21102;BME280;10709;49.006;12.100;2023-08-17T03:29:09;49047.72;;;-146.00;91.69
21102;BME280;10709;49.006;12.100;2023-08-17T03:31:36;49079.06;;;-146.00;91.69
21102;BME280;10709;49.006;12.100;2023-08-17T03:34:03;49084.94;;;-146.00;92.30
21102;BME280;10709;49.006;12.100;2023-08-17T03:36:30;49083.00;;;-146.00;92.36
21102;BME280;10709;49.006;12.100;2023-08-17T03:38:56;49049.69;;;-146.00;92.34
21102;BME280;10709;49.006;12.100;2023-08-17T03:41:23;49032.06;;;-146.00;92.59
21102;BME280;10709;49.006;12.100;2023-08-17T03:43:49;49069.28;;;-146.00;92.65
21102;BME280;10709;49.006;12.100;2023-08-17T03:46:16;49051.66;;;-146.00;92.33
21102;BME280;10709;49.006;12.100;2023-08-17T03:48:43;49043.81;;;-146.00;92.33
21102;BME280;10709;49.006;12.100;2023-08-17T03:51:09;49055.56;;;-146.00;91.88
21102;BME280;10709;49.006;12.100;2023-08-17T03:53:36;49075.16;;;-146.00;92.89
21102;BME280;10709;49.006;12.100;2023-08-17T03:56:02;49047.72;;;-146.00;92.85
21102;BME280;10709;49.006;12.100;2023-08-17T03:58:29;49043.81;;;-146.00;93.04
21102;BME280;10709;49.006;12.100;2023-08-17T04:00:59;49028.13;;;-146.00;93.20
21102;BME280;10709;49.006;12.100;2023-08-17T04:03:26;49047.72;;;-146.00;93.14
21102;BME280;10709;49.006;12.100;2023-08-17T04:05:52;49047.72;;;-146.00;93.62
21102;BME280;10709;49.006;12.100;2023-08-17T04:08:19;49047.72;;;-146.00;94.09
21102;BME280;10709;49.006;12.100;2023-08-17T04:10:47;49047.72;;;-146.00;94.91
21102;BME280;10709;49.006;12.100;2023-08-17T04:13:13;49051.66;;;-146.00;94.57
21102;BME280;10709;49.006;12.100;2023-08-17T04:15:40;49037.94;;;-146.00;95.41
21102;BME280;10709;49.006;12.100;2023-08-17T04:18:06;49051.66;;;-146.00;95.71
21102;BME280;10709;49.006;12.100;2023-08-17T04:20:33;49008.53;;;-146.00;95.51
21102;BME280;10709;49.006;12.100;2023-08-17T04:22:59;49059.47;;;-146.00;95.66
21102;BME280;10709;49.006;12.100;2023-08-17T04:25:26;49088.88;;;-146.00;95.83
21102;BME280;10709;49.006;12.100;2023-08-17T04:27:52;49071.25;;;-146.00;95.90
21102;BME280;10709;49.006;12.100;2023-08-17T04:30:19;49043.81;;;-146.00;95.81
21102;BME280;10709;49.006;12.100;2023-08-17T04:32:45;49039.88;;;-146.00;95.82
21102;BME280;10709;49.006;12.100;2023-08-17T04:35:19;49059.47;;;-146.00;96.37
21102;BME280;10709;49.006;12.100;2023-08-17T04:37:46;49051.66;;;-146.00;96.29
21102;BME280;10709;49.006;12.100;2023-08-17T04:40:14;49059.47;;;-146.00;96.65
21102;BME280;10709;49.006;12.100;2023-08-17T04:42:40;49039.88;;;-146.00;96.43
21102;BME280;10709;49.006;12.100;2023-08-17T04:45:07;49071.25;;;-146.00;96.65
21102;BME280;10709;49.006;12.100;2023-08-17T04:47:34;49059.47;;;-146.00;97.35
21102;BME280;10709;49.006;12.100;2023-08-17T04:50:01;49016.38;;;-146.00;97.31
21102;BME280;10709;49.006;12.100;2023-08-17T04:52:27;49065.34;;;-146.00;97.65
21102;BME280;10709;49.006;12.100;2023-08-17T04:54:53;49077.13;;;-146.00;97.24
21102;BME280;10709;49.006;12.100;2023-08-17T04:57:20;49047.72;;;-146.00;97.14
21102;BME280;10709;49.006;12.100;2023-08-17T04:59:46;49051.66;;;-146.00;96.44
21102;BME280;10709;49.006;12.100;2023-08-17T05:02:13;49043.81;;;-146.00;96.68
21102;BME280;10709;49.006;12.100;2023-08-17T05:04:47;49039.88;;;-146.00;96.82
21102;BME280;10709;49.006;12.100;2023-08-17T05:07:13;49059.47;;;-146.00;96.75
21102;BME280;10709;49.006;12.100;2023-08-17T05:09:43;49051.66;;;-146.00;96.07
21102;BME280;10709;49.006;12.100;2023-08-17T05:12:10;49059.47;;;-146.00;96.60
21102;BME280;10709;49.006;12.100;2023-08-17T05:14:37;49075.16;;;-146.00;96.09
21102;BME280;10709;49.006;12.100;2023-08-17T05:17:06;49063.41;;;-146.00;95.95
21102;BME280;10709;49.006;12.100;2023-08-17T05:19:32;49051.66;;;-146.00;95.94
21102;BME280;10709;49.006;12.100;2023-08-17T05:21:59;49077.13;;;-146.00;94.84
21102;BME280;10709;49.006;12.100;2023-08-17T05:24:25;49024.22;;;-146.00;94.89
21102;BME280;10709;49.006;12.100;2023-08-17T05:26:53;49053.59;;;-146.00;95.21
21102;BME280;10709;49.006;12.100;2023-08-17T05:29:20;49057.53;;;-146.00;95.58
21102;BME280;10709;49.006;12.100;2023-08-17T05:31:46;49081.03;;;-146.00;95.84
21102;BME280;10709;49.006;12.100;2023-08-17T05:34:13;49055.56;;;-146.00;95.71
21102;BME280;10709;49.006;12.100;2023-08-17T05:36:39;49047.72;;;-146.00;95.58
21102;BME280;10709;49.006;12.100;2023-08-17T05:39:07;49047.72;;;-146.00;95.87
21102;BME280;10709;49.006;12.100;2023-08-17T05:41:34;49083.00;;;-146.00;95.26
21102;BME280;10709;49.006;12.100;2023-08-17T05:44:00;49034.00;;;-146.00;95.88
21102;BME280;10709;49.006;12.100;2023-08-17T05:46:29;49032.06;;;-146.00;95.50
21102;BME280;10709;49.006;12.100;2023-08-17T05:48:55;49112.38;;;-146.00;96.05
21102;BME280;10709;49.006;12.100;2023-08-17T05:51:22;49063.41;;;-146.00;95.15
21102;BME280;10709;49.006;12.100;2023-08-17T05:53:48;49063.41;;;-146.00;95.38
21102;BME280;10709;49.006;12.100;2023-08-17T05:56:15;49067.31;;;-146.00;94.01
21102;BME280;10709;49.006;12.100;2023-08-17T05:58:42;49079.06;;;-146.00;93.96
21102;BME280;10709;49.006;12.100;2023-08-17T06:01:10;49043.81;;;-146.00;93.47
21102;BME280;10709;49.006;12.100;2023-08-17T06:03:37;49069.28;;;-146.00;93.00
21102;BME280;10709;49.006;12.100;2023-08-17T06:06:04;49045.78;;;-146.00;93.34
21102;BME280;10709;49.006;12.100;2023-08-17T06:08:32;49073.19;;;-146.00;93.57
21102;BME280;10709;49.006;12.100;2023-08-17T06:10:58;49075.16;;;-146.00;92.87
21102;BME280;10709;49.006;12.100;2023-08-17T06:13:25;49063.41;;;-146.00;92.64
21102;BME280;10709;49.006;12.100;2023-08-17T06:15:51;49059.47;;;-146.00;91.84
21102;BME280;10709;49.006;12.100;2023-08-17T06:18:18;49032.06;;;-146.00;89.78
21102;BME280;10709;49.006;12.100;2023-08-17T06:20:46;49032.06;;;-146.00;90.44
21102;BME280;10709;49.006;12.100;2023-08-17T06:23:14;49073.19;;;-146.00;90.12
21102;BME280;10709;49.006;12.100;2023-08-17T06:25:40;49032.06;;;-146.00;87.77
21102;BME280;10709;49.006;12.100;2023-08-17T06:28:07;49039.88;;;-146.00;88.24
21102;BME280;10709;49.006;12.100;2023-08-17T06:30:33;49028.13;;;-146.00;88.48
21102;BME280;10709;49.006;12.100;2023-08-17T06:33:00;49067.31;;;-146.00;88.34
21102;BME280;10709;49.006;12.100;2023-08-17T06:35:26;49034.00;;;-146.00;87.91
21102;BME280;10709;49.006;12.100;2023-08-17T06:37:54;49008.53;;;-146.00;87.66
21102;BME280;10709;49.006;12.100;2023-08-17T06:40:24;49035.97;;;-146.00;85.86
21102;BME280;10709;49.006;12.100;2023-08-17T06:42:51;49035.97;;;-146.00;84.54
21102;BME280;10709;49.006;12.100;2023-08-17T06:45:18;49016.38;;;-146.00;84.70
21102;BME280;10709;49.006;12.100;2023-08-17T06:47:45;49039.88;;;-146.00;84.78
21102;BME280;10709;49.006;12.100;2023-08-17T06:50:12;49012.47;;;-146.00;86.19
21102;BME280;10709;49.006;12.100;2023-08-17T06:52:38;49008.53;;;-146.00;85.18
21102;BME280;10709;49.006;12.100;2023-08-17T06:55:06;49026.19;;;-146.00;84.01
21102;BME280;10709;49.006;12.100;2023-08-17T06:57:33;49020.31;;;-146.00;83.95
21102;BME280;10709;49.006;12.100;2023-08-17T06:59:59;49008.53;;;-146.00;81.84
21102;BME280;10709;49.006;12.100;2023-08-17T07:02:26;49020.31;;;-146.00;82.79
21102;BME280;10709;49.006;12.100;2023-08-17T07:05:04;48990.91;;;-146.00;81.45
21102;BME280;10709;49.006;12.100;2023-08-17T07:07:31;49012.47;;;-146.00;81.41
21102;BME280;10709;49.006;12.100;2023-08-17T07:09:58;49016.38;;;-146.00;80.56
21102;BME280;10709;49.006;12.100;2023-08-17T07:12:24;48996.78;;;-146.00;82.10
21102;BME280;10709;49.006;12.100;2023-08-17T07:14:51;49024.22;;;-146.00;81.60
21102;BME280;10709;49.006;12.100;2023-08-17T07:17:17;49012.47;;;-146.00;81.60
21102;BME280;10709;49.006;12.100;2023-08-17T07:19:44;48988.94;;;-146.00;80.67
21102;BME280;10709;49.006;12.100;2023-08-17T07:22:30;48949.78;;;-146.00;80.04
21102;BME280;10709;49.006;12.100;2023-08-17T07:24:57;49028.13;;;-146.00;78.97
21102;BME280;10709;49.006;12.100;2023-08-17T07:27:25;49020.31;;;-146.00;80.47
21102;BME280;10709;49.006;12.100;2023-08-17T07:29:52;48977.19;;;-146.00;78.92
21102;BME280;10709;49.006;12.100;2023-08-17T07:32:18;48973.28;;;-146.00;79.67
21102;BME280;10709;49.006;12.100;2023-08-17T07:34:45;48977.19;;;-146.00;79.10
21102;BME280;10709;49.006;12.100;2023-08-17T07:37:12;49016.38;;;-146.00;80.11
21102;BME280;10709;49.006;12.100;2023-08-17T07:39:41;48975.25;;;-146.00;78.76
21102;BME280;10709;49.006;12.100;2023-08-17T07:42:07;48988.94;;;-146.00;78.67
21102;BME280;10709;49.006;12.100;2023-08-17T07:44:34;49024.22;;;-146.00;77.59
21102;BME280;10709;49.006;12.100;2023-08-17T07:47:01;48941.94;;;-146.00;76.04
21102;BME280;10709;49.006;12.100;2023-08-17T07:49:28;48971.31;;;-146.00;74.64
21102;BME280;10709;49.006;12.100;2023-08-17T07:51:58;48945.84;;;-146.00;72.27
21102;BME280;10709;49.006;12.100;2023-08-17T07:54:25;48963.50;;;-146.00;72.43
21102;BME280;10709;49.006;12.100;2023-08-17T07:56:52;48969.38;;;-146.00;72.61
21102;BME280;10709;49.006;12.100;2023-08-17T07:59:18;48938.03;;;-146.00;72.65
21102;BME280;10709;49.006;12.100;2023-08-17T08:01:45;48994.84;;;-146.00;74.50
21102;BME280;10709;49.006;12.100;2023-08-17T08:04:11;49020.31;;;-146.00;75.22
21102;BME280;10709;49.006;12.100;2023-08-17T08:06:38;48941.94;;;-146.00;75.86
21102;BME280;10709;49.006;12.100;2023-08-17T08:09:04;48977.19;;;-146.00;76.37
21102;BME280;10709;49.006;12.100;2023-08-17T08:11:31;48987.00;;;-146.00;77.50
21102;BME280;10709;49.006;12.100;2023-08-17T08:13:57;48959.56;;;-146.00;76.71
21102;BME280;10709;49.006;12.100;2023-08-17T08:16:27;48996.78;;;-146.00;78.50
21102;BME280;10709;49.006;12.100;2023-08-17T08:18:56;48996.78;;;-146.00;78.81
21102;BME280;10709;49.006;12.100;2023-08-17T08:21:23;49016.38;;;-146.00;79.48
21102;BME280;10709;49.006;12.100;2023-08-17T08:23:49;49006.59;;;-146.00;79.97
21102;BME280;10709;49.006;12.100;2023-08-17T08:26:16;48985.03;;;-146.00;79.67
21102;BME280;10709;49.006;12.100;2023-08-17T08:28:42;48988.94;;;-146.00;80.23
21102;BME280;10709;49.006;12.100;2023-08-17T08:31:09;49012.47;;;-146.00;80.53
21102;BME280;10709;49.006;12.100;2023-08-17T08:33:35;48994.84;;;-146.00;79.48
21102;BME280;10709;49.006;12.100;2023-08-17T08:36:02;49008.53;;;-146.00;80.24
21102;BME280;10709;49.006;12.100;2023-08-17T08:38:29;49024.22;;;-146.00;81.45
21102;BME280;10709;49.006;12.100;2023-08-17T08:40:56;48996.78;;;-146.00;80.15
21102;BME280;10709;49.006;12.100;2023-08-17T08:43:23;48988.94;;;-146.00;79.22
21102;BME280;10709;49.006;12.100;2023-08-17T08:45:51;48973.28;;;-146.00;78.91
21102;BME280;10709;49.006;12.100;2023-08-17T08:48:18;49016.38;;;-146.00;78.45
21102;BME280;10709;49.006;12.100;2023-08-17T08:50:46;48985.03;;;-146.00;78.50
21102;BME280;10709;49.006;12.100;2023-08-17T08:53:17;49030.09;;;-146.00;78.49
21102;BME280;10709;49.006;12.100;2023-08-17T08:56:04;49010.50;;;-146.00;78.82
21102;BME280;10709;49.006;12.100;2023-08-17T08:58:36;48949.78;;;-146.00;76.58
21102;BME280;10709;49.006;12.100;2023-08-17T09:01:05;48996.78;;;-146.00;78.09
21102;BME280;10709;49.006;12.100;2023-08-17T09:03:34;49020.31;;;-146.00;78.33
21102;BME280;10709;49.006;12.100;2023-08-17T09:06:02;49004.63;;;-146.00;78.35
21102;BME280;10709;49.006;12.100;2023-08-17T09:08:30;48985.03;;;-146.00;77.16
21102;BME280;10709;49.006;12.100;2023-08-17T09:10:57;48987.00;;;-146.00;75.79
21102;BME280;10709;49.006;12.100;2023-08-17T09:13:23;48957.59;;;-146.00;75.23
21102;BME280;10709;49.006;12.100;2023-08-17T09:15:50;49008.53;;;-146.00;75.06
21102;BME280;10709;49.006;12.100;2023-08-17T09:18:19;48941.94;;;-146.00;73.60
21102;BME280;10709;49.006;12.100;2023-08-17T09:20:46;48992.88;;;-146.00;74.14
21102;BME280;10709;49.006;12.100;2023-08-17T09:23:19;48969.38;;;-146.00;74.36
21102;BME280;10709;49.006;12.100;2023-08-17T09:25:49;48953.69;;;-146.00;72.66
21102;BME280;10709;49.006;12.100;2023-08-17T09:28:17;48973.28;;;-146.00;72.75
21102;BME280;10709;49.006;12.100;2023-08-17T09:30:53;48973.28;;;-146.00;73.46
21102;BME280;10709;49.006;12.100;2023-08-17T09:33:25;48973.28;;;-146.00;74.79
21102;BME280;10709;49.006;12.100;2023-08-17T09:35:53;49012.47;;;-146.00;73.89
21102;BME280;10709;49.006;12.100;2023-08-17T09:38:25;48981.13;;;-146.00;74.19
21102;BME280;10709;49.006;12.100;2023-08-17T09:40:51;48983.06;;;-146.00;75.06
21102;BME280;10709;49.006;12.100;2023-08-17T09:43:19;48973.28;;;-146.00;75.13
21102;BME280;10709;49.006;12.100;2023-08-17T09:45:47;48979.16;;;-146.00;74.04
21102;BME280;10709;49.006;12.100;2023-08-17T09:48:16;48983.06;;;-146.00;73.35
21102;BME280;10709;49.006;12.100;2023-08-17T09:50:46;48965.44;;;-146.00;73.67
21102;BME280;10709;49.006;12.100;2023-08-17T09:53:14;48996.78;;;-146.00;72.94
21102;BME280;10709;49.006;12.100;2023-08-17T09:55:41;48977.19;;;-146.00;72.85
21102;BME280;10709;49.006;12.100;2023-08-17T09:58:08;48969.38;;;-146.00;72.70
21102;BME280;10709;49.006;12.100;2023-08-17T10:00:35;48983.06;;;-146.00;73.23
21102;BME280;10709;49.006;12.100;2023-08-17T10:03:02;48965.44;;;-146.00;72.52
21102;BME280;10709;49.006;12.100;2023-08-17T10:05:38;48969.38;;;-146.00;71.72
21102;BME280;10709;49.006;12.100;2023-08-17T10:08:06;48988.94;;;-146.00;71.58
21102;BME280;10709;49.006;12.100;2023-08-17T10:10:35;48949.78;;;-146.00;71.25
21102;BME280;10709;49.006;12.100;2023-08-17T10:13:10;48930.19;;;-146.00;71.07
21102;BME280;10709;49.006;12.100;2023-08-17T10:15:44;48941.94;;;-146.00;70.44
21102;BME280;10709;49.006;12.100;2023-08-17T10:18:17;48996.78;;;-146.00;70.51
21102;BME280;10709;49.006;12.100;2023-08-17T10:20:55;48961.53;;;-146.00;69.80
21102;BME280;10709;49.006;12.100;2023-08-17T10:23:27;48973.28;;;-146.00;70.56
21102;BME280;10709;49.006;12.100;2023-08-17T10:25:55;48961.53;;;-146.00;71.05
21102;BME280;10709;49.006;12.100;2023-08-17T10:28:22;48973.28;;;-146.00;70.28
21102;BME280;10709;49.006;12.100;2023-08-17T10:30:49;48977.19;;;-146.00;70.33
21102;BME280;10709;49.006;12.100;2023-08-17T10:33:17;48969.38;;;-146.00;69.30
21102;BME280;10709;49.006;12.100;2023-08-17T10:35:45;48939.97;;;-146.00;69.36
21102;BME280;10709;49.006;12.100;2023-08-17T10:38:12;48969.38;;;-146.00;69.15
21102;BME280;10709;49.006;12.100;2023-08-17T10:40:42;48945.84;;;-146.00;68.41
21102;BME280;10709;49.006;12.100;2023-08-17T10:43:09;48985.03;;;-146.00;67.67
21102;BME280;10709;49.006;12.100;2023-08-17T10:45:37;48949.78;;;-146.00;67.79
21102;BME280;10709;49.006;12.100;2023-08-17T10:50:33;48981.13;;;-146.00;68.38
21102;BME280;10709;49.006;12.100;2023-08-17T10:53:04;48981.13;;;-146.00;69.29
21102;BME280;10709;49.006;12.100;2023-08-17T10:55:44;48957.59;;;-146.00;67.02
21102;BME280;10709;49.006;12.100;2023-08-17T10:58:11;48981.13;;;-146.00;67.05
21102;BME280;10709;49.006;12.100;2023-08-17T11:00:41;48949.78;;;-146.00;65.57
21102;BME280;10709;49.006;12.100;2023-08-17T11:03:10;48965.44;;;-146.00;66.33
21102;BME280;10709;49.006;12.100;2023-08-17T11:05:49;48961.53;;;-146.00;66.10
21102;BME280;10709;49.006;12.100;2023-08-17T11:08:41;48957.59;;;-146.00;66.16
21102;BME280;10709;49.006;12.100;2023-08-17T11:11:19;48938.03;;;-146.00;65.17
21102;BME280;10709;49.006;12.100;2023-08-17T11:13:46;48928.22;;;-146.00;65.21
21102;BME280;10709;49.006;12.100;2023-08-17T11:16:15;48965.44;;;-146.00;63.52
21102;BME280;10709;49.006;12.100;2023-08-17T11:18:44;48961.53;;;-146.00;63.32
21102;BME280;10709;49.006;12.100;2023-08-17T11:21:11;48975.25;;;-146.00;64.19
21102;BME280;10709;49.006;12.100;2023-08-17T11:23:44;48941.94;;;-146.00;64.07
21102;BME280;10709;49.006;12.100;2023-08-17T11:26:11;48938.03;;;-146.00;63.59
21102;BME280;10709;49.006;12.100;2023-08-17T11:28:38;48973.28;;;-146.00;63.89
21102;BME280;10709;49.006;12.100;2023-08-17T11:31:10;48920.38;;;-146.00;65.31
21102;BME280;10709;49.006;12.100;2023-08-17T11:33:38;48969.38;;;-146.00;66.28
21102;BME280;10709;49.006;12.100;2023-08-17T11:36:07;48973.28;;;-146.00;65.01
21102;BME280;10709;49.006;12.100;2023-08-17T11:38:37;48949.78;;;-146.00;62.96
21102;BME280;10709;49.006;12.100;2023-08-17T11:41:05;48971.31;;;-146.00;63.37
21102;BME280;10709;49.006;12.100;2023-08-17T11:43:32;48987.00;;;-146.00;63.08
21102;BME280;10709;49.006;12.100;2023-08-17T11:46:00;48934.09;;;-146.00;63.23
21102;BME280;10709;49.006;12.100;2023-08-17T11:48:28;48967.41;;;-146.00;62.52
21102;BME280;10709;49.006;12.100;2023-08-17T11:50:55;48973.28;;;-146.00;63.31
21102;BME280;10709;49.006;12.100;2023-08-17T11:53:22;48955.66;;;-146.00;62.26
21102;BME280;10709;49.006;12.100;2023-08-17T11:55:48;48953.69;;;-146.00;62.09
21102;BME280;10709;49.006;12.100;2023-08-17T11:58:36;48981.13;;;-146.00;61.55
21102;BME280;10709;49.006;12.100;2023-08-17T12:01:02;48945.84;;;-146.00;60.88
21102;BME280;10709;49.006;12.100;2023-08-17T12:03:34;48945.84;;;-146.00;60.12
21102;BME280;10709;49.006;12.100;2023-08-17T12:06:01;48965.44;;;-146.00;61.72
21102;BME280;10709;49.006;12.100;2023-08-17T12:08:29;48953.69;;;-146.00;61.19
21102;BME280;10709;49.006;12.100;2023-08-17T12:10:55;48953.69;;;-146.00;60.44
21102;BME280;10709;49.006;12.100;2023-08-17T12:13:30;48953.69;;;-146.00;60.62
21102;BME280;10709;49.006;12.100;2023-08-17T12:15:56;48959.56;;;-146.00;61.67
21102;BME280;10709;49.006;12.100;2023-08-17T12:18:25;48934.09;;;-146.00;61.23
21102;BME280;10709;49.006;12.100;2023-08-17T12:20:53;48953.69;;;-146.00;60.35
21102;BME280;10709;49.006;12.100;2023-08-17T12:23:19;48977.19;;;-146.00;59.21
21102;BME280;10709;49.006;12.100;2023-08-17T12:25:46;48934.09;;;-146.00;60.58
21102;BME280;10709;49.006;12.100;2023-08-17T12:28:17;48987.00;;;-146.00;61.57
21102;BME280;10709;49.006;12.100;2023-08-17T12:30:44;48969.38;;;-146.00;60.96
21102;BME280;10709;49.006;12.100;2023-08-17T12:33:10;48992.88;;;-146.00;60.54
21102;BME280;10709;49.006;12.100;2023-08-17T12:35:37;48969.38;;;-146.00;58.66
21102;BME280;10709;49.006;12.100;2023-08-17T12:38:04;48961.53;;;-146.00;59.39